Asteria — WDE5489 — position and weather

sailwx.info

Track history (hours):
 
Tides and Currents Weather Stations Pressure Air Temp Water Temp Dewpoint Dewpoint Depression Visibility Wind Speed Wind Dir Waves Ship Positions

Asteria

Owner: Boston HarborCruises, Boston, MA. More information available from US FCC via Universal Licensing System and Coast Guard Vessel Documentation Center.

Last reported at 2016-May-26 19:33 UTC. Time now 2016-May-26 20:24 UTC.
Position N 42°22' W 071°03'.

Length 33 m; draft 2 m.

Type: High speed craft. MMSI: 367367470.

Date/timePositionNaut miles runAvg speedWind from/ knotsBaromVisibWave heightAir tempDewpointWater temp
2016-May-26 19:33N 42°22' W 071°03'0 0.0
2016-May-26 18:33N 42°22' W 071°03'1313.0
2016-May-26 17:33N 42°19' W 070°46'1716.7
2016-May-26 16:31N 42°15' W 070°23'6 5.4
2016-May-26 15:28N 42°11' W 070°27'1920.9
2016-May-26 14:33N 42°19' W 070°51'10 9.6
2016-May-26 13:33N 42°22' W 071°03'0 0.5
2016-May-26 12:34N 42°21' W 071°02'8 7.5
2016-May-26 11:29N 42°15' W 070°55'8 9.1
2016-May-26 10:33N 42°21' W 071°03'0 0.0
2016-May-26 00:34N 42°21' W 071°03'8 7.8
2016-May-25 23:30N 42°15' W 070°55'7 7.8
2016-May-25 22:33N 42°21' W 071°01'2 2.3
2016-May-25 21:33N 42°19' W 070°59'5 4.5
2016-May-25 20:33N 42°23' W 071°03'0 0.0
2016-May-25 19:31N 42°23' W 071°03'1 1.4
2016-May-25 18:33N 42°22' W 071°03'3615.3
2016-May-25 16:12N 42°14' W 070°15'10 9.8
2016-May-25 15:09N 42°15' W 070°29'1726.4
2016-May-25 14:32N 42°20' W 070°51'9 9.6
2016-May-25 13:33N 42°22' W 071°03'1 0.6
2016-May-25 12:34N 42°22' W 071°02'8 6.4
2016-May-25 11:17N 42°15' W 070°55'811.5
2016-May-25 10:33N 42°21' W 071°03'0 0.0
2016-May-25 00:33N 42°21' W 071°03'8 8.0
2016-May-24 23:32N 42°15' W 070°55'8 8.2
2016-May-24 22:34N 42°21' W 071°02'3 2.5
2016-May-24 21:33N 42°20' W 070°60'3 3.1
2016-May-24 20:33N 42°22' W 071°03'0 0.0
2016-May-24 19:34N 42°22' W 071°03'0 0.0
2016-May-24 18:27N 42°22' W 071°03'0 0.0
2016-May-24 17:15N 42°22' W 071°03'1 0.5
2016-May-24 15:33N 42°21' W 071°02'8 8.3
2016-May-24 14:33N 42°19' W 070°51'9 9.0
2016-May-24 13:31N 42°22' W 071°03'1 0.6
2016-May-24 12:34N 42°22' W 071°02'8 7.4
2016-May-24 11:27N 42°15' W 070°55'8 9.3
2016-May-24 10:33N 42°21' W 071°03'0 0.0
2016-May-24 00:33N 42°21' W 071°03'8 7.4
2016-May-23 23:27N 42°15' W 070°55'8 9.0
2016-May-23 22:33N 42°21' W 071°02'3 2.7
2016-May-23 21:34N 42°19' W 070°60'3 3.2
2016-May-23 20:33N 42°22' W 071°03'0 0.0
2016-May-23 19:33N 42°22' W 071°03'0 0.0
2016-May-23 18:33N 42°22' W 071°03'4 4.5
2016-May-23 17:34N 42°20' W 070°57'2120.9
2016-May-23 16:32N 42°13' W 070°30'1411.0
2016-May-23 15:15N 42°28' W 070°30'1522.2
2016-May-23 14:33N 42°22' W 070°49'1010.5
2016-May-23 13:33N 42°22' W 071°03'0 0.4
2016-May-23 12:34N 42°21' W 071°02'8 7.9
2016-May-23 11:31N 42°15' W 070°55'8 8.7
2016-May-23 10:33N 42°21' W 071°03'6 0.5
2016-May-22 22:22N 42°17' W 070°58'6 7.1
2016-May-22 21:33N 42°22' W 071°03'1919.2
2016-May-22 20:33N 42°15' W 070°38'10 4.8
2016-May-22 18:28N 42°19' W 070°51'910.3
2016-May-22 17:33N 42°22' W 071°03'10 3.1
2016-May-22 14:28N 42°19' W 070°51'1010.1
2016-May-22 13:31N 42°22' W 071°03'1 0.6
2016-May-22 12:25N 42°22' W 071°02'8 0.6
2016-May-21 23:33N 42°16' W 070°55'8 8.3
2016-May-21 22:33N 42°22' W 071°03'0 0.0
2016-May-21 21:33N 42°22' W 071°03'2221.4
2016-May-21 20:32N 42°15' W 070°34'11 5.4
2016-May-21 18:34N 42°19' W 070°48'1111.2
2016-May-21 17:33N 42°22' W 071°03'2525.6
2016-May-21 16:33N 42°15' W 070°30'16 7.8
2016-May-21 14:31N 42°19' W 070°51'10 9.8
2016-May-21 13:33N 42°22' W 071°03'1 0.8
2016-May-21 12:33N 42°22' W 071°03'1 0.1
2016-May-21 00:33N 42°21' W 071°03'8 8.2
2016-May-20 23:33N 42°15' W 070°55'8 8.1
2016-May-20 22:34N 42°21' W 071°02'3 2.8
2016-May-20 21:33N 42°19' W 070°60'3 2.9
2016-May-20 20:33N 42°22' W 071°02'0 0.0
2016-May-20 19:33N 42°22' W 071°02'0 0.0
2016-May-20 18:32N 42°22' W 071°02'1 0.6
2016-May-20 17:28N 42°22' W 071°03'2426.3
2016-May-20 16:34N 42°21' W 070°31'6 4.5
2016-May-20 15:09N 42°14' W 070°31'1627.5
2016-May-20 14:33N 42°19' W 070°52'8 8.4
2016-May-20 13:33N 42°22' W 071°03'1 0.5
2016-May-20 12:33N 42°22' W 071°02'8 8.4
2016-May-20 11:33N 42°15' W 070°55'8 8.4
2016-May-20 10:33N 42°21' W 071°03'8 8.4
2016-May-20 09:33N 42°15' W 070°55'0 0.0
2016-May-20 01:06N 42°15' W 070°55'815.2
2016-May-20 00:34N 42°21' W 071°03'8 8.3
2016-May-19 23:33N 42°15' W 070°55'8 7.9
2016-May-19 22:34N 42°21' W 071°02'2 2.5
2016-May-19 21:34N 42°20' W 070°60'3 3.1
2016-May-19 20:33N 42°22' W 071°03'0 0.0
2016-May-19 19:33N 42°22' W 071°03'0 0.0
2016-May-19 18:32N 42°22' W 071°03'1 0.8
2016-May-19 17:34N 42°21' W 071°02'3030.3
2016-May-19 16:34N 42°40' W 070°30'1111.1
2016-May-19 15:33N 42°35' W 070°16'2727.5
2016-May-19 14:34N 42°24' W 070°50'10 9.7
2016-May-19 13:33N 42°22' W 071°03'1 0.5
2016-May-19 12:31N 42°22' W 071°02'8 8.2
2016-May-19 11:31N 42°15' W 070°55'8 8.7
2016-May-19 10:34N 42°21' W 071°03'8 8.1
2016-May-19 09:31N 42°15' W 070°55'8 0.9
2016-May-19 00:34N 42°21' W 071°03'8 8.3
2016-May-18 23:33N 42°15' W 070°55'8 8.1
2016-May-18 22:33N 42°21' W 071°02'3 2.7
2016-May-18 21:34N 42°19' W 070°60'3 2.9
2016-May-18 20:32N 42°22' W 071°02'0 0.1
2016-May-18 19:34N 42°22' W 071°02'1918.5
2016-May-18 18:34N 42°16' W 070°38'1615.5
2016-May-18 17:32N 42°25' W 070°20'2222.6
2016-May-18 16:33N 42°23' W 070°50'9 4.7
2016-May-18 14:33N 42°22' W 071°03'3 2.7
2016-May-18 13:33N 42°20' W 070°60'2 2.5
2016-May-18 12:34N 42°21' W 071°03'8 8.2
2016-May-18 11:33N 42°15' W 070°55'8 8.0
2016-May-18 10:31N 42°21' W 071°03'8 8.7
2016-May-18 09:33N 42°15' W 070°55'8 0.9
2016-May-18 00:33N 42°21' W 071°03'8 8.5
2016-May-17 23:33N 42°15' W 070°55'8 7.8
2016-May-17 22:34N 42°21' W 071°02'2 1.9
2016-May-17 21:33N 42°20' W 070°60'2 2.0
2016-May-17 20:21N 42°22' W 071°02'0 0.5
2016-May-17 19:33N 42°22' W 071°03'13 4.2
2016-May-17 16:33N 42°18' W 070°47'1312.7
2016-May-17 15:33N 42°22' W 071°03'4 4.0
2016-May-17 14:34N 42°21' W 070°58'2 2.3
2016-May-17 13:33N 42°19' W 070°59'4 3.9
2016-May-17 12:33N 42°21' W 071°03'8 8.4
2016-May-17 11:33N 42°15' W 070°55'8 8.4
2016-May-17 10:33N 42°21' W 071°03'8 0.9
2016-May-17 01:05N 42°15' W 070°55'815.6
2016-May-17 00:33N 42°21' W 071°03'8 8.2
2016-May-16 23:33N 42°15' W 070°55'8 8.1
2016-May-16 22:33N 42°21' W 071°02'4 3.5
2016-May-16 21:34N 42°19' W 070°59'5 5.0
2016-May-16 20:33N 42°23' W 071°03'  
Track history (hours):
 
Tides and Currents Weather Stations Pressure Air Temp Water Temp Dewpoint Dewpoint Depression Visibility Wind Speed Wind Dir Waves Ship Positions

Asteria

Owner: Boston HarborCruises, Boston, MA. More information available from US FCC via Universal Licensing System and Coast Guard Vessel Documentation Center.

Last reported at 2016-May-26 19:33 UTC. Time now 2016-May-26 20:24 UTC.
Position N 42°22' W 071°03'.

Length 33 m; draft 2 m.

Type: High speed craft. MMSI: 367367470.

Date/timePositionNaut miles runAvg speedWind from/ knotsBaromVisibWave heightAir tempDewpointWater temp
2016-May-26 19:33N 42°22' W 071°03'0 0.0
2016-May-26 18:33N 42°22' W 071°03'1313.0
2016-May-26 17:33N 42°19' W 070°46'1716.7
2016-May-26 16:31N 42°15' W 070°23'6 5.4
2016-May-26 15:28N 42°11' W 070°27'1920.9
2016-May-26 14:33N 42°19' W 070°51'10 9.6
2016-May-26 13:33N 42°22' W 071°03'0 0.5
2016-May-26 12:34N 42°21' W 071°02'8 7.5
2016-May-26 11:29N 42°15' W 070°55'8 9.1
2016-May-26 10:33N 42°21' W 071°03'0 0.0
2016-May-26 00:34N 42°21' W 071°03'8 7.8
2016-May-25 23:30N 42°15' W 070°55'7 7.8
2016-May-25 22:33N 42°21' W 071°01'2 2.3
2016-May-25 21:33N 42°19' W 070°59'5 4.5
2016-May-25 20:33N 42°23' W 071°03'0 0.0
2016-May-25 19:31N 42°23' W 071°03'1 1.4
2016-May-25 18:33N 42°22' W 071°03'3615.3
2016-May-25 16:12N 42°14' W 070°15'10 9.8
2016-May-25 15:09N 42°15' W 070°29'1726.4
2016-May-25 14:32N 42°20' W 070°51'9 9.6
2016-May-25 13:33N 42°22' W 071°03'1 0.6
2016-May-25 12:34N 42°22' W 071°02'8 6.4
2016-May-25 11:17N 42°15' W 070°55'811.5
2016-May-25 10:33N 42°21' W 071°03'0 0.0
2016-May-25 00:33N 42°21' W 071°03'8 8.0
2016-May-24 23:32N 42°15' W 070°55'8 8.2
2016-May-24 22:34N 42°21' W 071°02'3 2.5
2016-May-24 21:33N 42°20' W 070°60'3 3.1
2016-May-24 20:33N 42°22' W 071°03'0 0.0
2016-May-24 19:34N 42°22' W 071°03'0 0.0
2016-May-24 18:27N 42°22' W 071°03'0 0.0
2016-May-24 17:15N 42°22' W 071°03'1 0.5
2016-May-24 15:33N 42°21' W 071°02'8 8.3
2016-May-24 14:33N 42°19' W 070°51'9 9.0
2016-May-24 13:31N 42°22' W 071°03'1 0.6
2016-May-24 12:34N 42°22' W 071°02'8 7.4
2016-May-24 11:27N 42°15' W 070°55'8 9.3
2016-May-24 10:33N 42°21' W 071°03'0 0.0
2016-May-24 00:33N 42°21' W 071°03'8 7.4
2016-May-23 23:27N 42°15' W 070°55'8 9.0
2016-May-23 22:33N 42°21' W 071°02'3 2.7
2016-May-23 21:34N 42°19' W 070°60'3 3.2
2016-May-23 20:33N 42°22' W 071°03'0 0.0
2016-May-23 19:33N 42°22' W 071°03'0 0.0
2016-May-23 18:33N 42°22' W 071°03'4 4.5
2016-May-23 17:34N 42°20' W 070°57'2120.9
2016-May-23 16:32N 42°13' W 070°30'1411.0
2016-May-23 15:15N 42°28' W 070°30'1522.2
2016-May-23 14:33N 42°22' W 070°49'1010.5
2016-May-23 13:33N 42°22' W 071°03'0 0.4
2016-May-23 12:34N 42°21' W 071°02'8 7.9
2016-May-23 11:31N 42°15' W 070°55'8 8.7
2016-May-23 10:33N 42°21' W 071°03'6 0.5
2016-May-22 22:22N 42°17' W 070°58'6 7.1
2016-May-22 21:33N 42°22' W 071°03'1919.2
2016-May-22 20:33N 42°15' W 070°38'10 4.8
2016-May-22 18:28N 42°19' W 070°51'910.3
2016-May-22 17:33N 42°22' W 071°03'10 3.1
2016-May-22 14:28N 42°19' W 070°51'1010.1
2016-May-22 13:31N 42°22' W 071°03'1 0.6
2016-May-22 12:25N 42°22' W 071°02'8 0.6
2016-May-21 23:33N 42°16' W 070°55'8 8.3
2016-May-21 22:33N 42°22' W 071°03'0 0.0
2016-May-21 21:33N 42°22' W 071°03'2221.4
2016-May-21 20:32N 42°15' W 070°34'11 5.4
2016-May-21 18:34N 42°19' W 070°48'1111.2
2016-May-21 17:33N 42°22' W 071°03'2525.6
2016-May-21 16:33N 42°15' W 070°30'16 7.8
2016-May-21 14:31N 42°19' W 070°51'10 9.8
2016-May-21 13:33N 42°22' W 071°03'1 0.8
2016-May-21 12:33N 42°22' W 071°03'1 0.1
2016-May-21 00:33N 42°21' W 071°03'8 8.2
2016-May-20 23:33N 42°15' W 070°55'8 8.1
2016-May-20 22:34N 42°21' W 071°02'3 2.8
2016-May-20 21:33N 42°19' W 070°60'3 2.9
2016-May-20 20:33N 42°22' W 071°02'0 0.0
2016-May-20 19:33N 42°22' W 071°02'0 0.0
2016-May-20 18:32N 42°22' W 071°02'1 0.6
2016-May-20 17:28N 42°22' W 071°03'2426.3
2016-May-20 16:34N 42°21' W 070°31'6 4.5
2016-May-20 15:09N 42°14' W 070°31'1627.5
2016-May-20 14:33N 42°19' W 070°52'8 8.4
2016-May-20 13:33N 42°22' W 071°03'1 0.5
2016-May-20 12:33N 42°22' W 071°02'8 8.4
2016-May-20 11:33N 42°15' W 070°55'8 8.4
2016-May-20 10:33N 42°21' W 071°03'8 8.4
2016-May-20 09:33N 42°15' W 070°55'0 0.0
2016-May-20 01:06N 42°15' W 070°55'815.2
2016-May-20 00:34N 42°21' W 071°03'8 8.3
2016-May-19 23:33N 42°15' W 070°55'8 7.9
2016-May-19 22:34N 42°21' W 071°02'2 2.5
2016-May-19 21:34N 42°20' W 070°60'3 3.1
2016-May-19 20:33N 42°22' W 071°03'0 0.0
2016-May-19 19:33N 42°22' W 071°03'0 0.0
2016-May-19 18:32N 42°22' W 071°03'1 0.8
2016-May-19 17:34N 42°21' W 071°02'3030.3
2016-May-19 16:34N 42°40' W 070°30'1111.1
2016-May-19 15:33N 42°35' W 070°16'2727.5
2016-May-19 14:34N 42°24' W 070°50'10 9.7
2016-May-19 13:33N 42°22' W 071°03'1 0.5
2016-May-19 12:31N 42°22' W 071°02'8 8.2
2016-May-19 11:31N 42°15' W 070°55'8 8.7
2016-May-19 10:34N 42°21' W 071°03'8 8.1
2016-May-19 09:31N 42°15' W 070°55'8 0.9
2016-May-19 00:34N 42°21' W 071°03'8 8.3
2016-May-18 23:33N 42°15' W 070°55'8 8.1
2016-May-18 22:33N 42°21' W 071°02'3 2.7
2016-May-18 21:34N 42°19' W 070°60'3 2.9
2016-May-18 20:32N 42°22' W 071°02'0 0.1
2016-May-18 19:34N 42°22' W 071°02'1918.5
2016-May-18 18:34N 42°16' W 070°38'1615.5
2016-May-18 17:32N 42°25' W 070°20'2222.6
2016-May-18 16:33N 42°23' W 070°50'9 4.7
2016-May-18 14:33N 42°22' W 071°03'3 2.7
2016-May-18 13:33N 42°20' W 070°60'2 2.5
2016-May-18 12:34N 42°21' W 071°03'8 8.2
2016-May-18 11:33N 42°15' W 070°55'8 8.0
2016-May-18 10:31N 42°21' W 071°03'8 8.7
2016-May-18 09:33N 42°15' W 070°55'8 0.9
2016-May-18 00:33N 42°21' W 071°03'8 8.5
2016-May-17 23:33N 42°15' W 070°55'8 7.8
2016-May-17 22:34N 42°21' W 071°02'2 1.9
2016-May-17 21:33N 42°20' W 070°60'2 2.0
2016-May-17 20:21N 42°22' W 071°02'0 0.5
2016-May-17 19:33N 42°22' W 071°03'13 4.2
2016-May-17 16:33N 42°18' W 070°47'1312.7
2016-May-17 15:33N 42°22' W 071°03'4 4.0
2016-May-17 14:34N 42°21' W 070°58'2 2.3
2016-May-17 13:33N 42°19' W 070°59'4 3.9
2016-May-17 12:33N 42°21' W 071°03'8 8.4
2016-May-17 11:33N 42°15' W 070°55'8 8.4
2016-May-17 10:33N 42°21' W 071°03'8 0.9
2016-May-17 01:05N 42°15' W 070°55'815.6
2016-May-17 00:33N 42°21' W 071°03'8 8.2
2016-May-16 23:33N 42°15' W 070°55'8 8.1
2016-May-16 22:33N 42°21' W 071°02'4 3.5
2016-May-16 21:34N 42°19' W 070°59'5 5.0
2016-May-16 20:33N 42°23' W 071°03'  

Dump ship's entire track history